Terminal Aerodrome Forecast
Issued by NWS

Current Version | Previous Version | Text Only | Print | Product List | Glossary On
Versions: 1 2 3 4 5 6 7 8 9 10 11 12 13 14 15 16 17 18 19
000
FTUS43 KEAX 292320
TAFMKC
TAF
KMKC 292320Z 3000/3024 06014G22KT 5SM -RA BR OVC025
     FM300300 08017G25KT 5SM -SHRA BR OVC015
     FM300600 08015G22KT 5SM BR OVC007
     FM301000 10010KT 5SM BR VCTS OVC007CB
     FM301700 20008KT P6SM OVC015=

USA.gov is the U.S. government's official web portal to all federal, state and local government web resources and services.